Time;durP1;ratioP1;P1;durP2;ratioP2;P2;SDS_P1;SDS_P2;PMS_P1;PMS_P2;Temp;Humidity;BMP_temperature;BMP_pressure;BME280_temperature;BME280_humidity;BME280_pressure;Samples;Min_cycle;Max_cycle;Signal;HPM_P1;HPM_P2
2023/04/27 00:01:47;;;;;;;20.98;11.80;;;;;;;;;;5033771;28;20475;-58
2023/04/27 00:04:13;;;;;;;23.80;12.05;;;;;;;;;;5034077;28;20037;-58
2023/04/27 00:06:38;;;;;;;22.48;12.10;;;;;;;;;;5035980;28;20022;-58
2023/04/27 00:09:03;;;;;;;17.30;11.25;;;;;;;;;;5037241;28;20091;-58
2023/04/27 00:11:29;;;;;;;16.02;10.73;;;;;;;;;;5037426;28;20021;-58
2023/04/27 00:13:54;;;;;;;22.05;12.57;;;;;;;;;;5037773;28;20022;-58
2023/04/27 00:16:20;;;;;;;14.02;9.75;;;;;;;;;;5020074;28;20057;-58
2023/04/27 00:18:45;;;;;;;18.02;10.95;;;;;;;;;;5037642;28;20456;-58
2023/04/27 00:21:11;;;;;;;18.40;11.32;;;;;;;;;;5037609;28;20025;-58
2023/04/27 00:23:36;;;;;;;18.02;10.10;;;;;;;;;;5037551;28;20083;-58
2023/04/27 00:26:01;;;;;;;15.70;9.50;;;;;;;;;;5019707;28;20022;-58
2023/04/27 00:28:28;;;;;;;17.13;11.10;;;;;;;;;;5037242;28;20037;-58
2023/04/27 00:30:56;;;;;;;26.30;15.40;;;;;;;;;;5019506;28;20030;-58
2023/04/27 00:33:25;;;;;;;29.88;15.70;;;;;;;;;;5037028;28;20014;-58
2023/04/27 00:35:50;;;;;;;29.65;16.77;;;;;;;;;;5019259;28;20489;-57
2023/04/27 00:38:16;;;;;;;31.15;17.02;;;;;;;;;;5019232;28;20602;-58
2023/04/27 00:40:41;;;;;;;27.63;15.88;;;;;;;;;;5036668;28;20034;-59
2023/04/27 00:43:07;;;;;;;32.13;17.05;;;;;;;;;;5036943;28;20038;-58
2023/04/27 00:45:37;;;;;;;28.65;16.38;;;;;;;;;;5019003;28;20369;-58
2023/04/27 00:48:02;;;;;;;31.95;17.38;;;;;;;;;;5018765;28;20395;-58
2023/04/27 00:50:28;;;;;;;25.90;15.07;;;;;;;;;;5036872;28;20029;-58
2023/04/27 00:52:55;;;;;;;23.25;14.27;;;;;;;;;;5037099;28;20459;-58
2023/04/27 00:55:30;;;;;;;30.58;16.02;;;;;;;;;;5019064;28;20072;-58
2023/04/27 00:57:55;;;;;;;27.40;16.15;;;;;;;;;;5019056;28;20101;-57
2023/04/27 01:00:23;;;;;;;28.63;16.45;;;;;;;;;;5019139;28;20135;-57
2023/04/27 01:02:48;;;;;;;28.45;14.40;;;;;;;;;;5036825;28;20116;-57
2023/04/27 01:05:17;;;;;;;23.75;13.90;;;;;;;;;;5036631;28;20038;-57
2023/04/27 01:07:45;;;;;;;23.98;13.85;;;;;;;;;;5036616;28;20018;-57
2023/04/27 01:10:10;;;;;;;26.83;14.88;;;;;;;;;;5036916;28;20030;-57
2023/04/27 01:12:36;;;;;;;23.98;13.02;;;;;;;;;;5036758;28;20086;-64
2023/04/27 01:15:04;;;;;;;23.20;13.30;;;;;;;;;;5035304;28;20032;-63
2023/04/27 01:17:31;;;;;;;24.42;14.50;;;;;;;;;;5017967;28;20026;-57
2023/04/27 01:19:58;;;;;;;29.08;15.38;;;;;;;;;;5018880;28;20036;-64
2023/04/27 01:22:24;;;;;;;23.38;14.55;;;;;;;;;;5002634;23;20054;-58
2023/04/27 01:24:49;;;;;;;20.77;13.38;;;;;;;;;;5031556;22;20065;-64
2023/04/27 01:27:14;;;;;;;20.02;12.18;;;;;;;;;;5034549;28;20030;-57
2023/04/27 01:29:40;;;;;;;26.65;13.85;;;;;;;;;;5034646;28;20120;-57
2023/04/27 01:32:05;;;;;;;26.40;14.35;;;;;;;;;;5034437;28;20040;-57
2023/04/27 01:34:31;;;;;;;24.88;14.10;;;;;;;;;;5034501;28;20049;-57
2023/04/27 01:36:56;;;;;;;24.20;14.05;;;;;;;;;;5034620;28;20025;-58
2023/04/27 01:39:22;;;;;;;21.05;12.35;;;;;;;;;;5035747;28;20036;-59
2023/04/27 01:41:47;;;;;;;18.52;10.77;;;;;;;;;;5034331;28;20460;-59
2023/04/27 01:44:12;;;;;;;26.05;13.23;;;;;;;;;;5035891;28;20033;-58
2023/04/27 01:46:38;;;;;;;18.15;11.95;;;;;;;;;;5034316;28;20108;-58
2023/04/27 01:49:03;;;;;;;18.45;11.05;;;;;;;;;;5035425;28;20030;-58
2023/04/27 01:51:29;;;;;;;18.80;11.15;;;;;;;;;;5017705;28;20024;-58
2023/04/27 01:53:55;;;;;;;18.52;11.57;;;;;;;;;;5035361;28;20029;-58
2023/04/27 01:56:20;;;;;;;20.45;12.30;;;;;;;;;;5035272;28;20057;-58
2023/04/27 01:58:46;;;;;;;22.67;11.48;;;;;;;;;;5035317;28;20034;-59
2023/04/27 02:01:12;;;;;;;19.98;12.45;;;;;;;;;;5033846;28;20491;-59
2023/04/27 02:03:37;;;;;;;20.00;12.05;;;;;;;;;;5033978;28;20471;-58
2023/04/27 02:06:04;;;;;;;23.00;12.05;;;;;;;;;;5017865;28;20053;-58
2023/04/27 02:08:29;;;;;;;15.70;9.90;;;;;;;;;;5034971;28;20553;-58
2023/04/27 02:10:57;;;;;;;15.40;8.55;;;;;;;;;;5017835;28;20025;-58
2023/04/27 02:13:22;;;;;;;15.55;9.98;;;;;;;;;;5017814;28;20040;-58
2023/04/27 02:15:48;;;;;;;17.40;10.52;;;;;;;;;;5035166;28;20025;-59
2023/04/27 02:18:14;;;;;;;16.20;10.10;;;;;;;;;;5033698;28;20587;-59
2023/04/27 02:20:40;;;;;;;18.10;9.93;;;;;;;;;;5034813;28;20103;-58
2023/04/27 02:23:05;;;;;;;18.58;11.02;;;;;;;;;;5034874;28;20140;-57
2023/04/27 02:25:31;;;;;;;19.75;10.52;;;;;;;;;;5033592;28;20030;-57
2023/04/27 02:27:56;;;;;;;18.85;10.88;;;;;;;;;;5033423;28;20030;-64
2023/04/27 02:30:22;;;;;;;17.42;10.98;;;;;;;;;;5034614;28;20106;-57
2023/04/27 02:32:48;;;;;;;18.08;10.88;;;;;;;;;;5033322;28;20056;-57
2023/04/27 02:35:13;;;;;;;17.08;10.48;;;;;;;;;;5035307;28;20048;-57
2023/04/27 02:37:46;;;;;;;18.20;10.43;;;;;;;;;;5033969;28;20057;-57
2023/04/27 02:40:13;;;;;;;18.30;10.38;;;;;;;;;;5035357;28;20030;-57
2023/04/27 02:42:39;;;;;;;17.15;10.27;;;;;;;;;;5034639;28;20037;-57
2023/04/27 02:45:05;;;;;;;16.75;10.73;;;;;;;;;;5034718;28;20056;-58
2023/04/27 02:47:31;;;;;;;19.58;10.68;;;;;;;;;;5033467;28;20113;-58
2023/04/27 02:49:56;;;;;;;18.65;10.45;;;;;;;;;;5034588;28;20179;-58
2023/04/27 02:52:21;;;;;;;18.85;10.55;;;;;;;;;;5034791;28;20079;-58
2023/04/27 02:54:47;;;;;;;17.20;11.45;;;;;;;;;;5034823;28;20022;-58
2023/04/27 02:57:12;;;;;;;17.65;10.88;;;;;;;;;;5034628;28;20029;-58
2023/04/27 02:59:38;;;;;;;22.58;12.18;;;;;;;;;;5033650;28;20388;-58
2023/04/27 03:02:03;;;;;;;22.83;12.23;;;;;;;;;;5034307;28;20029;-58
2023/04/27 03:04:28;;;;;;;20.13;12.13;;;;;;;;;;5033276;28;20175;-58
2023/04/27 03:06:54;;;;;;;20.08;12.38;;;;;;;;;;5034673;28;20067;-58
2023/04/27 03:09:19;;;;;;;16.73;9.98;;;;;;;;;;5034235;28;20022;-58
2023/04/27 03:11:45;;;;;;;16.15;10.07;;;;;;;;;;5034384;28;20464;-58
2023/04/27 03:14:12;;;;;;;16.95;10.73;;;;;;;;;;5034594;28;20026;-58
2023/04/27 03:16:37;;;;;;;19.65;11.02;;;;;;;;;;5032964;28;20021;-58
2023/04/27 03:19:03;;;;;;;17.88;11.43;;;;;;;;;;5034245;28;20087;-58
2023/04/27 03:21:30;;;;;;;17.70;10.23;;;;;;;;;;5033178;28;20052;-57
2023/04/27 03:23:56;;;;;;;18.58;10.82;;;;;;;;;;5033978;28;20087;-58
2023/04/27 03:26:21;;;;;;;15.52;10.02;;;;;;;;;;5034232;28;20053;-57
2023/04/27 03:28:47;;;;;;;14.63;9.75;;;;;;;;;;5032808;28;20033;-58
2023/04/27 03:31:12;;;;;;;15.25;9.55;;;;;;;;;;5034339;28;20021;-55
2023/04/27 03:33:38;;;;;;;15.93;9.15;;;;;;;;;;5016467;28;20352;-55
2023/04/27 03:36:05;;;;;;;13.35;9.02;;;;;;;;;;5034072;28;20029;-55
2023/04/27 03:38:31;;;;;;;22.15;11.45;;;;;;;;;;5032702;28;20026;-55
2023/04/27 03:40:56;;;;;;;21.63;11.77;;;;;;;;;;5033527;28;20041;-55
2023/04/27 03:43:23;;;;;;;18.08;9.75;;;;;;;;;;5032407;28;20360;-55
2023/04/27 03:45:48;;;;;;;16.67;9.90;;;;;;;;;;5033990;28;20037;-55
2023/04/27 03:48:14;;;;;;;16.00;9.43;;;;;;;;;;5016097;28;20033;-56
2023/04/27 03:50:40;;;;;;;16.48;9.95;;;;;;;;;;5032655;28;20028;-55
2023/04/27 03:53:05;;;;;;;18.83;10.52;;;;;;;;;;5032663;28;20032;-55
2023/04/27 03:55:31;;;;;;;17.38;10.00;;;;;;;;;;5032650;28;20037;-55
2023/04/27 03:57:57;;;;;;;15.60;9.90;;;;;;;;;;5032651;28;20053;-55
2023/04/27 04:00:23;;;;;;;17.50;9.77;;;;;;;;;;5033410;28;20432;-56
2023/04/27 04:02:48;;;;;;;14.75;9.27;;;;;;;;;;5015911;28;20028;-56
2023/04/27 04:05:14;;;;;;;14.07;9.07;;;;;;;;;;5033818;28;20025;-56
2023/04/27 04:07:42;;;;;;;15.77;9.68;;;;;;;;;;5016571;28;20034;-56
2023/04/27 04:10:08;;;;;;;15.70;9.38;;;;;;;;;;5031275;28;20053;-55
2023/04/27 04:12:36;;;;;;;16.13;10.07;;;;;;;;;;5032296;28;20507;-56
2023/04/27 04:15:02;;;;;;;18.45;10.60;;;;;;;;;;5032153;28;20049;-55
2023/04/27 04:17:27;;;;;;;20.55;11.48;;;;;;;;;;5032344;28;20029;-55
2023/04/27 04:19:53;;;;;;;21.63;11.82;;;;;;;;;;5032211;28;20132;-55
2023/04/27 04:22:18;;;;;;;18.67;11.50;;;;;;;;;;5029497;28;20039;-58
2023/04/27 04:24:44;;;;;;;20.25;11.15;;;;;;;;;;5014154;28;20488;-59
2023/04/27 04:27:10;;;;;;;19.48;11.68;;;;;;;;;;5033037;28;20117;-59
2023/04/27 04:29:35;;;;;;;22.20;13.23;;;;;;;;;;5031955;28;20281;-56
2023/04/27 04:32:00;;;;;;;19.20;12.13;;;;;;;;;;5031801;28;20384;-56
2023/04/27 04:34:28;;;;;;;23.90;13.63;;;;;;;;;;5031689;28;20021;-56
2023/04/27 04:36:56;;;;;;;23.35;13.95;;;;;;;;;;5015615;28;20495;-56
2023/04/27 04:39:21;;;;;;;21.38;13.38;;;;;;;;;;5033451;28;20127;-56
2023/04/27 04:41:48;;;;;;;24.70;15.30;;;;;;;;;;5032234;28;20483;-56
2023/04/27 04:44:17;;;;;;;32.25;16.73;;;;;;;;;;5032092;28;20022;-56
2023/04/27 04:46:43;;;;;;;28.67;17.08;;;;;;;;;;5014319;28;20038;-60
2023/04/27 04:49:08;;;;;;;28.95;16.13;;;;;;;;;;5019716;28;20363;-64
2023/04/27 04:51:34;;;;;;;26.65;15.68;;;;;;;;;;5032276;28;20020;-64
2023/04/27 04:54:00;;;;;;;27.25;14.25;;;;;;;;;;5025631;28;20053;-63
2023/04/27 04:56:25;;;;;;;23.80;13.65;;;;;;;;;;5036833;28;20026;-63
2023/04/27 04:58:53;;;;;;;21.95;13.32;;;;;;;;;;5018493;28;20032;-63
2023/04/27 05:01:18;;;;;;;24.58;15.07;;;;;;;;;;5035510;28;20108;-63
2023/04/27 05:03:44;;;;;;;28.60;15.60;;;;;;;;;;5035535;28;20117;-64
2023/04/27 05:06:09;;;;;;;32.70;19.75;;;;;;;;;;5036520;28;20028;-63
2023/04/27 05:08:36;;;;;;;34.10;22.33;;;;;;;;;;5031178;28;20041;-55
2023/04/27 05:11:01;;;;;;;33.47;19.77;;;;;;;;;;5036125;28;20026;-55
2023/04/27 05:13:27;;;;;;;35.97;21.85;;;;;;;;;;5035724;28;20032;-55
2023/04/27 05:15:52;;;;;;;33.22;20.17;;;;;;;;;;5036120;28;20104;-55
2023/04/27 05:18:19;;;;;;;31.95;19.08;;;;;;;;;;5035760;28;20463;-55
2023/04/27 05:20:45;;;;;;;31.10;16.55;;;;;;;;;;5035872;28;20053;-55
2023/04/27 05:23:11;;;;;;;24.65;15.50;;;;;;;;;;5035826;28;20476;-57
2023/04/27 05:25:42;;;;;;;21.15;12.88;;;;;;;;;;5036122;28;20041;-55
2023/04/27 05:28:08;;;;;;;20.63;11.77;;;;;;;;;;5033672;28;20021;-55
2023/04/27 05:30:33;;;;;;;19.67;11.15;;;;;;;;;;5035387;28;20690;-55
2023/04/27 05:32:59;;;;;;;17.05;9.23;;;;;;;;;;5034863;28;20032;-55
2023/04/27 05:35:24;;;;;;;16.70;9.90;;;;;;;;;;5035218;28;20368;-55
2023/04/27 05:37:49;;;;;;;14.32;9.63;;;;;;;;;;5019962;28;20433;-55
2023/04/27 05:40:15;;;;;;;16.25;8.32;;;;;;;;;;5014905;28;20049;-55
2023/04/27 05:42:40;;;;;;;12.32;7.75;;;;;;;;;;5013508;28;20040;-55
2023/04/27 05:45:06;;;;;;;13.20;8.23;;;;;;;;;;5014409;28;20041;-55
2023/04/27 05:47:31;;;;;;;16.67;8.90;;;;;;;;;;5014311;28;20042;-55
2023/04/27 05:49:57;;;;;;;20.80;10.52;;;;;;;;;;5014018;28;20062;-55
2023/04/27 05:52:28;;;;;;;19.00;9.95;;;;;;;;;;4996883;28;20428;-55
2023/04/27 05:54:53;;;;;;;12.93;8.85;;;;;;;;;;5014362;28;20030;-55
2023/04/27 05:57:18;;;;;;;14.02;8.10;;;;;;;;;;5014369;28;20029;-55
2023/04/27 05:59:45;;;;;;;14.07;8.32;;;;;;;;;;5011299;28;20030;-55
2023/04/27 06:02:10;;;;;;;11.20;7.45;;;;;;;;;;5012434;28;20032;-55
2023/04/27 06:04:36;;;;;;;12.38;7.47;;;;;;;;;;5012525;28;20038;-55
2023/04/27 06:07:03;;;;;;;11.63;6.75;;;;;;;;;;5010931;28;20034;-55
2023/04/27 06:09:31;;;;;;;12.70;7.32;;;;;;;;;;5011084;28;20026;-54
2023/04/27 06:11:58;;;;;;;10.02;6.93;;;;;;;;;;5010700;28;20480;-55
2023/04/27 06:14:23;;;;;;;12.00;7.32;;;;;;;;;;5011511;28;20030;-55
2023/04/27 06:16:49;;;;;;;10.65;6.40;;;;;;;;;;5012782;28;20022;-55
2023/04/27 06:19:14;;;;;;;9.45;6.47;;;;;;;;;;5012809;28;20037;-54
2023/04/27 06:21:39;;;;;;;11.13;6.70;;;;;;;;;;5012777;28;20029;-55
2023/04/27 06:24:05;;;;;;;18.40;9.20;;;;;;;;;;5011163;28;20516;-55
2023/04/27 06:26:30;;;;;;;15.15;7.63;;;;;;;;;;5012965;28;20022;-55
2023/04/27 06:28:55;;;;;;;13.35;6.32;;;;;;;;;;5012603;28;20570;-55
2023/04/27 06:31:21;;;;;;;9.85;6.20;;;;;;;;;;5014411;28;20036;-55
2023/04/27 06:33:46;;;;;;;12.38;6.32;;;;;;;;;;5013179;28;20373;-55
2023/04/27 06:36:11;;;;;;;13.27;6.10;;;;;;;;;;5014549;28;20025;-55
2023/04/27 06:38:37;;;;;;;10.18;6.22;;;;;;;;;;5013282;28;20469;-55
2023/04/27 06:41:02;;;;;;;13.25;6.70;;;;;;;;;;5014331;28;20053;-55
2023/04/27 06:43:28;;;;;;;10.55;6.70;;;;;;;;;;5014270;28;20034;-55
2023/04/27 06:45:53;;;;;;;12.13;6.65;;;;;;;;;;5014339;28;20041;-55
2023/04/27 06:48:19;;;;;;;9.70;5.88;;;;;;;;;;5014226;28;20440;-55
2023/04/27 06:50:44;;;;;;;9.10;5.60;;;;;;;;;;5014191;28;20026;-55
2023/04/27 06:53:10;;;;;;;12.23;6.18;;;;;;;;;;5014218;28;20068;-55
2023/04/27 06:55:35;;;;;;;9.75;5.65;;;;;;;;;;5014101;28;20109;-55
2023/04/27 06:58:01;;;;;;;10.65;6.20;;;;;;;;;;5014072;28;20034;-55
2023/04/27 07:00:27;;;;;;;12.25;5.88;;;;;;;;;;5014035;28;20030;-55
2023/04/27 07:02:52;;;;;;;9.05;4.68;;;;;;;;;;5014033;28;20073;-55
2023/04/27 07:05:17;;;;;;;9.82;5.55;;;;;;;;;;5014013;28;20022;-55
2023/04/27 07:07:43;;;;;;;6.93;4.45;;;;;;;;;;5013972;28;20037;-55
2023/04/27 07:10:09;;;;;;;9.30;5.38;;;;;;;;;;5013707;28;20030;-55
2023/04/27 07:12:34;;;;;;;8.27;5.22;;;;;;;;;;5013868;28;20357;-55
2023/04/27 07:14:59;;;;;;;8.90;5.63;;;;;;;;;;5013358;28;20048;-55
2023/04/27 07:17:25;;;;;;;8.45;4.65;;;;;;;;;;5013427;28;20057;-55
2023/04/27 07:19:50;;;;;;;8.20;5.05;;;;;;;;;;5013784;28;20107;-55
2023/04/27 07:22:15;;;;;;;9.48;4.32;;;;;;;;;;5012481;28;20042;-55
2023/04/27 07:24:41;;;;;;;7.10;3.85;;;;;;;;;;5013551;28;20046;-55
2023/04/27 07:27:07;;;;;;;6.25;3.83;;;;;;;;;;5013476;28;20029;-55
2023/04/27 07:29:32;;;;;;;3.45;2.78;;;;;;;;;;5013538;28;20453;-55
2023/04/27 07:31:58;;;;;;;4.60;2.47;;;;;;;;;;5013566;28;20049;-55
2023/04/27 07:34:23;;;;;;;3.60;2.63;;;;;;;;;;5013522;28;20461;-55
2023/04/27 07:36:48;;;;;;;2.97;2.40;;;;;;;;;;5013429;28;20109;-55
2023/04/27 07:39:14;;;;;;;3.90;2.38;;;;;;;;;;5013536;28;20018;-55
2023/04/27 07:41:39;;;;;;;5.70;2.53;;;;;;;;;;5013453;28;20065;-55
2023/04/27 07:44:05;;;;;;;2.60;2.10;;;;;;;;;;5013289;28;20088;-55
2023/04/27 07:46:30;;;;;;;4.30;2.05;;;;;;;;;;5013300;28;20034;-55
2023/04/27 07:48:58;;;;;;;3.90;2.00;;;;;;;;;;5013375;28;20038;-55
2023/04/27 07:51:24;;;;;;;2.35;2.05;;;;;;;;;;5013400;28;20083;-55
2023/04/27 07:53:49;;;;;;;5.28;2.40;;;;;;;;;;5013369;28;20030;-55
2023/04/27 07:56:15;;;;;;;4.32;2.30;;;;;;;;;;5013306;28;20441;-55
2023/04/27 07:58:41;;;;;;;4.63;2.50;;;;;;;;;;5013297;28;20104;-55
2023/04/27 08:01:06;;;;;;;4.00;2.38;;;;;;;;;;5013248;28;20387;-55
2023/04/27 08:03:31;;;;;;;3.85;2.33;;;;;;;;;;5013228;28;20030;-55
2023/04/27 08:05:57;;;;;;;2.72;2.40;;;;;;;;;;5013502;28;20092;-55
2023/04/27 08:08:22;;;;;;;2.80;2.17;;;;;;;;;;5013149;28;20111;-55
2023/04/27 08:10:48;;;;;;;4.78;2.00;;;;;;;;;;5013161;28;20026;-55
2023/04/27 08:13:13;;;;;;;3.97;3.00;;;;;;;;;;5013229;28;20022;-55
2023/04/27 08:15:38;;;;;;;2.90;2.13;;;;;;;;;;5011668;28;20026;-55
2023/04/27 08:18:03;;;;;;;5.53;2.30;;;;;;;;;;5013098;28;20053;-55
2023/04/27 08:20:29;;;;;;;3.78;2.17;;;;;;;;;;5013354;28;20026;-55
2023/04/27 08:22:54;;;;;;;5.22;2.30;;;;;;;;;;5012986;28;20066;-55
2023/04/27 08:25:20;;;;;;;4.47;2.20;;;;;;;;;;5012851;28;20100;-55
2023/04/27 08:27:45;;;;;;;3.13;1.98;;;;;;;;;;5015132;28;20120;-55
2023/04/27 08:30:10;;;;;;;3.05;2.17;;;;;;;;;;5016674;28;20073;-55
2023/04/27 08:32:36;;;;;;;5.25;2.30;;;;;;;;;;5016735;28;20480;-55
2023/04/27 08:35:01;;;;;;;3.78;2.28;;;;;;;;;;5015331;28;20113;-55
2023/04/27 08:37:27;;;;;;;3.72;1.95;;;;;;;;;;5016643;28;20034;-55
2023/04/27 08:39:53;;;;;;;3.65;2.40;;;;;;;;;;5016644;28;20018;-55
2023/04/27 08:42:18;;;;;;;2.17;2.00;;;;;;;;;;5016683;28;20037;-55
2023/04/27 08:44:43;;;;;;;3.50;2.10;;;;;;;;;;5016707;28;20026;-55
2023/04/27 08:47:09;;;;;;;2.65;1.77;;;;;;;;;;5016565;28;20026;-55
2023/04/27 08:49:37;;;;;;;4.68;2.10;;;;;;;;;;5016414;28;20032;-55
2023/04/27 08:52:02;;;;;;;6.00;1.83;;;;;;;;;;5016422;28;20060;-55
2023/04/27 08:54:27;;;;;;;2.75;1.98;;;;;;;;;;5016286;28;20054;-55
2023/04/27 08:56:53;;;;;;;4.40;2.05;;;;;;;;;;5016406;28;20087;-55
2023/04/27 08:59:18;;;;;;;4.05;1.92;;;;;;;;;;5016338;28;20427;-55
2023/04/27 09:01:47;;;;;;;3.38;1.98;;;;;;;;;;5014899;28;20463;-55
2023/04/27 09:04:12;;;;;;;5.03;2.00;;;;;;;;;;5015179;28;20117;-55
2023/04/27 09:06:39;;;;;;;3.58;1.58;;;;;;;;;;5014903;28;20096;-55
2023/04/27 09:09:06;;;;;;;3.00;2.10;;;;;;;;;;5015891;28;20030;-55
2023/04/27 09:11:33;;;;;;;1.75;1.42;;;;;;;;;;5016002;28;20109;-55
2023/04/27 09:13:59;;;;;;;4.13;1.90;;;;;;;;;;5016032;28;20034;-55
2023/04/27 09:16:26;;;;;;;4.90;2.15;;;;;;;;;;5015933;28;20080;-55
2023/04/27 09:18:51;;;;;;;3.22;1.70;;;;;;;;;;5015946;28;20045;-55
2023/04/27 09:21:23;;;;;;;3.15;1.80;;;;;;;;;;5015833;28;20041;-55
2023/04/27 09:23:50;;;;;;;3.25;1.80;;;;;;;;;;5015791;28;20048;-55
2023/04/27 09:26:22;;;;;;;1.77;1.67;;;;;;;;;;5015803;28;20041;-55
2023/04/27 09:28:49;;;;;;;1.92;1.52;;;;;;;;;;5014173;28;20160;-55
2023/04/27 09:31:15;;;;;;;2.13;1.40;;;;;;;;;;5014659;28;20041;-55
2023/04/27 09:33:40;;;;;;;3.75;1.80;;;;;;;;;;5015593;28;20010;-55
2023/04/27 09:36:06;;;;;;;3.10;2.20;;;;;;;;;;5014177;28;20413;-55
2023/04/27 09:38:31;;;;;;;3.70;1.65;;;;;;;;;;5014758;28;20038;-55
2023/04/27 09:40:57;;;;;;;3.08;1.90;;;;;;;;;;5015473;28;20025;-55
2023/04/27 09:43:23;;;;;;;3.80;2.00;;;;;;;;;;5015429;28;20018;-55
2023/04/27 09:45:49;;;;;;;3.10;1.88;;;;;;;;;;5014140;28;20030;-55
2023/04/27 09:48:16;;;;;;;3.83;1.92;;;;;;;;;;5015349;28;20080;-55
2023/04/27 09:50:43;;;;;;;5.07;2.00;;;;;;;;;;5015237;28;20030;-55
2023/04/27 09:53:10;;;;;;;5.65;2.13;;;;;;;;;;5015049;28;20032;-55
2023/04/27 09:55:38;;;;;;;3.22;2.08;;;;;;;;;;5015138;28;20033;-55
2023/04/27 09:58:05;;;;;;;8.77;3.33;;;;;;;;;;5015108;28;20037;-55
2023/04/27 10:00:56;;;;;;;3.20;1.98;;;;;;;;;;5015040;28;20468;-55
2023/04/27 10:03:26;;;;;;;3.85;3.20;;;;;;;;;;5014969;28;20038;-55
2023/04/27 10:05:58;;;;;;;2.75;2.30;;;;;;;;;;5015087;28;20038;-55
2023/04/27 10:08:24;;;;;;;6.65;3.85;;;;;;;;;;5014790;28;20033;-55
2023/04/27 10:10:49;;;;;;;4.88;2.80;;;;;;;;;;5014830;28;20018;-55
2023/04/27 10:13:21;;;;;;;4.95;2.10;;;;;;;;;;5014890;28;20030;-55
2023/04/27 10:15:47;;;;;;;2.72;1.80;;;;;;;;;;5014672;28;20083;-55
2023/04/27 10:18:12;;;;;;;2.45;1.83;;;;;;;;;;5014884;28;20109;-55
2023/04/27 10:20:37;;;;;;;3.10;1.95;;;;;;;;;;5014741;28;20503;-55
2023/04/27 10:23:03;;;;;;;4.05;1.90;;;;;;;;;;4997028;28;20030;-55
2023/04/27 10:25:35;;;;;;;2.88;2.03;;;;;;;;;;5014393;28;20163;-55
2023/04/27 10:28:01;;;;;;;3.85;1.85;;;;;;;;;;5014628;28;20112;-55
2023/04/27 10:30:33;;;;;;;5.05;2.45;;;;;;;;;;5014414;28;20555;-55
2023/04/27 10:33:04;;;;;;;3.33;2.40;;;;;;;;;;5014479;28;20022;-55
2023/04/27 10:35:33;;;;;;;3.13;1.88;;;;;;;;;;5014392;28;20030;-55
2023/04/27 10:38:08;;;;;;;2.50;1.80;;;;;;;;;;5014552;28;20045;-55
2023/04/27 10:40:34;;;;;;;2.17;1.80;;;;;;;;;;5014314;28;20523;-55
2023/04/27 10:43:10;;;;;;;2.65;1.48;;;;;;;;;;5014302;28;20092;-55
2023/04/27 10:45:36;;;;;;;2.60;1.70;;;;;;;;;;5013005;28;20034;-55
2023/04/27 10:48:01;;;;;;;5.70;3.03;;;;;;;;;;5014277;28;20026;-55
2023/04/27 10:50:26;;;;;;;2.20;1.70;;;;;;;;;;5014193;28;20092;-55
2023/04/27 10:52:52;;;;;;;6.70;2.67;;;;;;;;;;5014554;28;20022;-55
2023/04/27 10:55:19;;;;;;;3.70;2.20;;;;;;;;;;5014294;28;20384;-55
2023/04/27 10:57:49;;;;;;;2.58;1.67;;;;;;;;;;5014288;28;20385;-55
2023/04/27 11:00:37;;;;;;;2.63;2.03;;;;;;;;;;5014220;28;20432;-55
2023/04/27 11:03:09;;;;;;;2.30;2.05;;;;;;;;;;5013450;28;20088;-55
2023/04/27 11:05:35;;;;;;;2.85;1.75;;;;;;;;;;5013887;28;20034;-55
2023/04/27 11:08:26;;;;;;;3.30;1.70;;;;;;;;;;5013972;28;20045;-55
2023/04/27 11:10:52;;;;;;;3.05;1.80;;;;;;;;;;5008735;28;20080;-62
2023/04/27 11:13:19;;;;;;;4.43;1.75;;;;;;;;;;5013884;28;20480;-62
2023/04/27 11:15:47;;;;;;;1.98;1.65;;;;;;;;;;5040498;23;20053;-62
2023/04/27 11:18:14;;;;;;;2.13;1.35;;;;;;;;;;5042110;23;20069;-55
2023/04/27 11:20:40;;;;;;;3.42;1.80;;;;;;;;;;5033322;28;20065;-62
2023/04/27 11:23:05;;;;;;;2.17;1.60;;;;;;;;;;5033434;28;20498;-62
2023/04/27 11:25:31;;;;;;;1.88;1.60;;;;;;;;;;5033356;28;20029;-62
2023/04/27 11:27:57;;;;;;;2.53;1.80;;;;;;;;;;5033353;28;20017;-62
2023/04/27 11:30:23;;;;;;;2.65;1.75;;;;;;;;;;5033254;28;20108;-62
2023/04/27 11:32:49;;;;;;;1.80;1.70;;;;;;;;;;5033323;28;20056;-62
2023/04/27 11:35:15;;;;;;;2.60;1.60;;;;;;;;;;5033368;28;20082;-62
2023/04/27 11:37:41;;;;;;;3.45;1.70;;;;;;;;;;5015597;28;20022;-63
2023/04/27 11:40:07;;;;;;;2.15;1.75;;;;;;;;;;5033234;28;20069;-63
2023/04/27 11:42:34;;;;;;;1.80;1.70;;;;;;;;;;5033229;28;20033;-62
2023/04/27 11:45:00;;;;;;;2.22;1.60;;;;;;;;;;5033130;28;20498;-62
2023/04/27 11:47:27;;;;;;;2.63;1.67;;;;;;;;;;5033081;28;20032;-62
2023/04/27 11:49:56;;;;;;;2.85;1.50;;;;;;;;;;5033079;28;20021;-62
2023/04/27 11:52:21;;;;;;;2.70;1.95;;;;;;;;;;5031857;28;20026;-62
2023/04/27 11:54:48;;;;;;;3.00;2.13;;;;;;;;;;5033005;28;20495;-62
2023/04/27 11:57:13;;;;;;;3.22;1.95;;;;;;;;;;5033046;28;20025;-62
2023/04/27 11:59:38;;;;;;;2.92;1.70;;;;;;;;;;5033022;28;20037;-62
2023/04/27 12:02:04;;;;;;;3.45;1.65;;;;;;;;;;5016682;28;20028;-62
2023/04/27 12:04:29;;;;;;;2.05;1.80;;;;;;;;;;5037029;28;20501;-62
2023/04/27 12:06:55;;;;;;;7.93;2.95;;;;;;;;;;5037050;28;20530;-62
2023/04/27 12:09:21;;;;;;;7.22;2.55;;;;;;;;;;5036920;28;20124;-62
2023/04/27 12:11:46;;;;;;;4.50;3.08;;;;;;;;;;5019133;28;20029;-62
2023/04/27 12:14:12;;;;;;;3.17;2.47;;;;;;;;;;5036946;28;20087;-62
2023/04/27 12:16:37;;;;;;;2.38;2.10;;;;;;;;;;5036869;28;20099;-62
2023/04/27 12:19:03;;;;;;;2.50;2.30;;;;;;;;;;5036643;28;20139;-62
2023/04/27 12:21:28;;;;;;;3.22;2.00;;;;;;;;;;5036754;28;20038;-62
2023/04/27 12:23:53;;;;;;;4.18;2.13;;;;;;;;;;5035542;28;20034;-62
2023/04/27 12:26:19;;;;;;;5.68;2.17;;;;;;;;;;5019332;28;20037;-62
2023/04/27 12:28:44;;;;;;;2.88;2.20;;;;;;;;;;5036630;28;20021;-62
2023/04/27 12:31:12;;;;;;;4.88;2.10;;;;;;;;;;5018919;28;20107;-62
2023/04/27 12:33:37;;;;;;;2.78;2.10;;;;;;;;;;5036620;28;20021;-62
2023/04/27 12:36:03;;;;;;;2.42;1.85;;;;;;;;;;5036539;28;20575;-62
2023/04/27 12:38:28;;;;;;;4.72;2.30;;;;;;;;;;5036391;28;20041;-62
2023/04/27 12:40:53;;;;;;;4.82;2.20;;;;;;;;;;5036374;28;20113;-62
2023/04/27 12:43:19;;;;;;;3.25;2.58;;;;;;;;;;5036390;28;20100;-62
2023/04/27 12:45:44;;;;;;;3.63;1.95;;;;;;;;;;5018564;28;20032;-62
2023/04/27 12:48:10;;;;;;;2.20;2.00;;;;;;;;;;5036261;28;20087;-62
2023/04/27 12:50:36;;;;;;;2.42;1.80;;;;;;;;;;5036202;28;20042;-62
2023/04/27 12:53:02;;;;;;;3.50;2.00;;;;;;;;;;5036279;28;20079;-62
2023/04/27 12:55:28;;;;;;;1.92;1.80;;;;;;;;;;5036094;28;20033;-62
2023/04/27 12:57:53;;;;;;;2.88;2.15;;;;;;;;;;5036127;28;20029;-62
2023/04/27 13:00:19;;;;;;;3.83;2.00;;;;;;;;;;5036368;28;20125;-62
2023/04/27 13:02:45;;;;;;;3.65;1.77;;;;;;;;;;5036635;28;20040;-62
2023/04/27 13:05:10;;;;;;;2.20;2.00;;;;;;;;;;5018874;28;20048;-62
2023/04/27 13:07:36;;;;;;;3.15;2.38;;;;;;;;;;5036227;28;20127;-62
2023/04/27 13:10:02;;;;;;;3.00;1.85;;;;;;;;;;5036420;28;20038;-62
2023/04/27 13:12:27;;;;;;;2.58;2.03;;;;;;;;;;5035627;28;20109;-62
2023/04/27 13:14:53;;;;;;;3.67;1.98;;;;;;;;;;5033654;28;20119;-63
2023/04/27 13:17:18;;;;;;;2.72;1.90;;;;;;;;;;5035178;28;20492;-61
2023/04/27 13:19:43;;;;;;;2.97;2.10;;;;;;;;;;5028604;28;20136;-63
2023/04/27 13:22:09;;;;;;;4.03;1.92;;;;;;;;;;5032214;28;20061;-64
2023/04/27 13:24:35;;;;;;;3.03;2.45;;;;;;;;;;5033134;28;20041;-63
2023/04/27 13:27:01;;;;;;;5.20;2.33;;;;;;;;;;5033087;28;20025;-64
2023/04/27 13:29:26;;;;;;;3.33;2.25;;;;;;;;;;5032929;28;20718;-63
2023/04/27 13:31:51;;;;;;;2.10;1.90;;;;;;;;;;5031837;28;20809;-63
2023/04/27 13:34:17;;;;;;;2.60;2.10;;;;;;;;;;5033143;28;20048;-63
2023/04/27 13:36:43;;;;;;;3.22;2.20;;;;;;;;;;5032776;28;20104;-63
2023/04/27 13:39:08;;;;;;;2.63;2.30;;;;;;;;;;5014557;28;20018;-62
2023/04/27 13:41:34;;;;;;;2.08;1.77;;;;;;;;;;5032153;28;20152;-63
2023/04/27 13:44:00;;;;;;;3.85;2.33;;;;;;;;;;5032861;28;20033;-63
2023/04/27 13:46:25;;;;;;;2.50;2.30;;;;;;;;;;5032827;28;20041;-63
2023/04/27 13:48:51;;;;;;;4.22;3.00;;;;;;;;;;5032674;28;20041;-63
2023/04/27 13:51:16;;;;;;;3.05;2.10;;;;;;;;;;5014388;28;20067;-63
2023/04/27 13:53:41;;;;;;;2.42;2.22;;;;;;;;;;5030748;28;20098;-63
2023/04/27 13:56:07;;;;;;;2.67;2.45;;;;;;;;;;5030941;28;20025;-63
2023/04/27 13:58:32;;;;;;;4.75;2.60;;;;;;;;;;5030979;28;20442;-63
2023/04/27 14:00:57;;;;;;;4.57;2.67;;;;;;;;;;5030602;28;20553;-63
2023/04/27 14:03:23;;;;;;;2.83;2.40;;;;;;;;;;5031179;28;20022;-63
2023/04/27 14:05:50;;;;;;;2.17;1.98;;;;;;;;;;5031170;28;20033;-63
2023/04/27 14:08:16;;;;;;;2.28;2.08;;;;;;;;;;5031078;28;20419;-63
2023/04/27 14:10:41;;;;;;;2.40;2.20;;;;;;;;;;5030954;28;20033;-63
2023/04/27 14:13:06;;;;;;;3.00;2.30;;;;;;;;;;5030635;28;20053;-63
2023/04/27 14:15:36;;;;;;;4.72;2.30;;;;;;;;;;5030463;28;20048;-63
2023/04/27 14:18:02;;;;;;;4.70;2.33;;;;;;;;;;5012621;28;20522;-63
2023/04/27 14:20:27;;;;;;;3.00;2.10;;;;;;;;;;5030616;28;20120;-63
2023/04/27 14:22:53;;;;;;;3.30;2.00;;;;;;;;;;5012675;28;20449;-63
2023/04/27 14:25:18;;;;;;;2.97;2.58;;;;;;;;;;5029745;28;20044;-52
2023/04/27 14:27:44;;;;;;;5.53;2.42;;;;;;;;;;5031546;28;20354;-55